sensor_id;sensor_type;location;lat;lon;timestamp;pressure;altitude;pressure_sealevel;temperature;humidity
75460;BME280;64039;53.060;9.342;2023-09-19T00:01:08;100036.72;;;15.34;100.00
75460;BME280;64039;53.060;9.342;2023-09-19T00:03:34;100043.66;;;15.37;100.00
75460;BME280;64039;53.060;9.342;2023-09-19T00:06:03;100041.06;;;15.35;100.00
75460;BME280;64039;53.060;9.342;2023-09-19T00:08:30;100041.09;;;15.32;100.00
75460;BME280;64039;53.060;9.342;2023-09-19T00:10:56;100040.25;;;15.32;100.00
75460;BME280;64039;53.060;9.342;2023-09-19T00:13:23;100047.25;;;15.31;100.00
75460;BME280;64039;53.060;9.342;2023-09-19T00:15:50;100036.81;;;15.27;100.00
75460;BME280;64039;53.060;9.342;2023-09-19T00:18:16;100047.28;;;15.25;100.00
75460;BME280;64039;53.060;9.342;2023-09-19T00:20:44;100048.97;;;15.34;100.00
75460;BME280;64039;53.060;9.342;2023-09-19T00:23:13;100037.59;;;15.35;100.00
75460;BME280;64039;53.060;9.342;2023-09-19T00:25:39;100049.78;;;15.39;100.00
75460;BME280;64039;53.060;9.342;2023-09-19T00:28:05;100056.81;;;15.35;100.00
75460;BME280;64039;53.060;9.342;2023-09-19T00:30:33;100061.22;;;15.32;100.00
75460;BME280;64039;53.060;9.342;2023-09-19T00:32:59;100067.34;;;15.31;100.00
75460;BME280;64039;53.060;9.342;2023-09-19T00:35:24;100069.00;;;15.41;100.00
75460;BME280;64039;53.060;9.342;2023-09-19T00:37:51;100068.13;;;15.39;100.00
75460;BME280;64039;53.060;9.342;2023-09-19T00:40:16;100078.72;;;15.30;100.00
75460;BME280;64039;53.060;9.342;2023-09-19T00:42:46;100073.44;;;15.33;100.00
75460;BME280;64039;53.060;9.342;2023-09-19T00:45:13;100075.19;;;15.34;100.00
75460;BME280;64039;53.060;9.342;2023-09-19T00:47:44;100070.81;;;15.33;100.00
75460;BME280;64039;53.060;9.342;2023-09-19T00:50:11;100075.19;;;15.32;100.00
75460;BME280;64039;53.060;9.342;2023-09-19T00:52:40;100070.06;;;15.23;100.00
75460;BME280;64039;53.060;9.342;2023-09-19T00:55:10;100077.06;;;15.19;100.00
75460;BME280;64039;53.060;9.342;2023-09-19T00:57:37;100075.34;;;15.18;100.00
75460;BME280;64039;53.060;9.342;2023-09-19T01:00:07;100073.50;;;15.25;100.00
75460;BME280;64039;53.060;9.342;2023-09-19T01:02:36;100084.97;;;15.16;100.00
75460;BME280;64039;53.060;9.342;2023-09-19T01:05:02;100078.75;;;15.27;100.00
75460;BME280;64039;53.060;9.342;2023-09-19T01:07:31;100083.16;;;15.24;100.00
75460;BME280;64039;53.060;9.342;2023-09-19T01:09:59;100091.06;;;15.18;100.00
75460;BME280;64039;53.060;9.342;2023-09-19T01:21:08;100095.41;;;15.19;100.00
75460;BME280;64039;53.060;9.342;2023-09-19T01:24:07;100112.88;;;15.23;100.00
75460;BME280;64039;53.060;9.342;2023-09-19T01:26:56;100111.13;;;15.19;100.00
75460;BME280;64039;53.060;9.342;2023-09-19T01:32:08;100104.97;;;15.28;100.00
75460;BME280;64039;53.060;9.342;2023-09-19T01:34:48;100106.69;;;15.29;100.00
75460;BME280;64039;53.060;9.342;2023-09-19T01:37:18;100118.03;;;15.33;100.00
75460;BME280;64039;53.060;9.342;2023-09-19T01:40:10;100132.97;;;15.23;100.00
75460;BME280;64039;53.060;9.342;2023-09-19T01:42:57;100122.44;;;15.28;100.00
75460;BME280;64039;53.060;9.342;2023-09-19T01:48:04;100122.53;;;15.17;100.00
75460;BME280;64039;53.060;9.342;2023-09-19T01:50:47;100118.84;;;15.36;100.00
75460;BME280;64039;53.060;9.342;2023-09-19T01:53:30;100146.75;;;15.47;100.00
75460;BME280;64039;53.060;9.342;2023-09-19T01:55:59;100160.72;;;15.46;100.00
75460;BME280;64039;53.060;9.342;2023-09-19T01:58:46;100146.91;;;15.25;100.00
75460;BME280;64039;53.060;9.342;2023-09-19T02:01:16;100145.34;;;15.04;100.00
75460;BME280;64039;53.060;9.342;2023-09-19T02:03:44;100139.34;;;14.89;100.00
75460;BME280;64039;53.060;9.342;2023-09-19T02:06:18;100143.78;;;14.78;100.00
75460;BME280;64039;53.060;9.342;2023-09-19T02:08:45;100155.19;;;14.77;100.00
75460;BME280;64039;53.060;9.342;2023-09-19T02:11:12;100157.78;;;14.78;100.00
75460;BME280;64039;53.060;9.342;2023-09-19T02:13:38;100156.06;;;14.70;100.00
75460;BME280;64039;53.060;9.342;2023-09-19T02:16:05;100161.41;;;14.50;100.00
75460;BME280;64039;53.060;9.342;2023-09-19T02:18:31;100169.28;;;14.48;100.00
75460;BME280;64039;53.060;9.342;2023-09-19T02:21:02;100166.75;;;14.29;100.00
75460;BME280;64039;53.060;9.342;2023-09-19T02:23:29;100165.03;;;14.21;100.00
75460;BME280;64039;53.060;9.342;2023-09-19T02:25:56;100169.34;;;14.34;100.00
75460;BME280;64039;53.060;9.342;2023-09-19T02:28:28;100169.44;;;14.17;100.00
75460;BME280;64039;53.060;9.342;2023-09-19T02:31:00;100181.59;;;14.21;100.00
75460;BME280;64039;53.060;9.342;2023-09-19T02:33:25;100182.50;;;14.11;100.00
75460;BME280;64039;53.060;9.342;2023-09-19T02:36:00;100184.28;;;13.98;100.00
75460;BME280;64039;53.060;9.342;2023-09-19T02:38:26;100183.44;;;13.94;100.00
75460;BME280;64039;53.060;9.342;2023-09-19T02:40:54;100182.59;;;13.86;100.00
75460;BME280;64039;53.060;9.342;2023-09-19T02:43:21;100186.09;;;13.77;100.00
75460;BME280;64039;53.060;9.342;2023-09-19T02:45:47;100191.31;;;13.85;100.00
75460;BME280;64039;53.060;9.342;2023-09-19T02:48:15;100185.19;;;13.86;100.00
75460;BME280;64039;53.060;9.342;2023-09-19T02:50:41;100190.47;;;13.74;100.00
75460;BME280;64039;53.060;9.342;2023-09-19T02:53:07;100191.31;;;13.83;100.00
75460;BME280;64039;53.060;9.342;2023-09-19T02:55:32;100197.41;;;13.82;100.00
75460;BME280;64039;53.060;9.342;2023-09-19T02:57:59;100192.22;;;13.76;100.00
75460;BME280;64039;53.060;9.342;2023-09-19T03:00:27;100193.91;;;13.93;100.00
75460;BME280;64039;53.060;9.342;2023-09-19T03:02:56;100197.41;;;13.82;100.00
75460;BME280;64039;53.060;9.342;2023-09-19T03:05:23;100210.53;;;13.79;100.00
75460;BME280;64039;53.060;9.342;2023-09-19T03:07:49;100208.78;;;13.74;100.00
75460;BME280;64039;53.060;9.342;2023-09-19T03:10:16;100210.53;;;13.76;100.00
75460;BME280;64039;53.060;9.342;2023-09-19T03:12:43;100209.63;;;13.88;100.00
75460;BME280;64039;53.060;9.342;2023-09-19T03:15:08;100204.44;;;13.76;100.00
75460;BME280;64039;53.060;9.342;2023-09-19T03:17:34;100204.41;;;13.83;100.00
75460;BME280;64039;53.060;9.342;2023-09-19T03:20:00;100202.66;;;13.90;100.00
75460;BME280;64039;53.060;9.342;2023-09-19T03:22:27;100211.38;;;13.86;100.00
75460;BME280;64039;53.060;9.342;2023-09-19T03:24:53;100207.00;;;13.90;100.00
75460;BME280;64039;53.060;9.342;2023-09-19T03:27:19;100209.66;;;13.82;100.00
75460;BME280;64039;53.060;9.342;2023-09-19T03:29:46;100207.03;;;13.73;100.00
75460;BME280;64039;53.060;9.342;2023-09-19T03:32:11;100213.13;;;13.73;100.00
75460;BME280;64039;53.060;9.342;2023-09-19T03:34:38;100222.75;;;13.63;100.00
75460;BME280;64039;53.060;9.342;2023-09-19T03:37:09;100218.38;;;13.58;100.00
75460;BME280;64039;53.060;9.342;2023-09-19T03:39:34;100219.28;;;13.58;100.00
75460;BME280;64039;53.060;9.342;2023-09-19T03:42:01;100215.78;;;13.42;100.00
75460;BME280;64039;53.060;9.342;2023-09-19T03:44:26;100221.88;;;13.54;100.00
75460;BME280;64039;53.060;9.342;2023-09-19T03:46:52;100216.63;;;13.30;100.00
75460;BME280;64039;53.060;9.342;2023-09-19T03:49:17;100215.75;;;13.30;100.00
75460;BME280;64039;53.060;9.342;2023-09-19T03:51:42;100229.75;;;13.43;100.00
75460;BME280;64039;53.060;9.342;2023-09-19T03:54:08;100231.44;;;13.36;100.00
75460;BME280;64039;53.060;9.342;2023-09-19T03:56:34;100236.66;;;13.33;100.00
75460;BME280;64039;53.060;9.342;2023-09-19T03:58:59;100223.59;;;13.31;100.00
75460;BME280;64039;53.060;9.342;2023-09-19T04:01:25;100221.00;;;13.30;100.00
75460;BME280;64039;53.060;9.342;2023-09-19T04:03:53;100233.19;;;13.45;100.00
75460;BME280;64039;53.060;9.342;2023-09-19T04:06:18;100239.31;;;13.42;100.00
75460;BME280;64039;53.060;9.342;2023-09-19T04:08:44;100241.06;;;13.48;100.00
75460;BME280;64039;53.060;9.342;2023-09-19T04:11:11;100235.81;;;13.40;100.00
75460;BME280;64039;53.060;9.342;2023-09-19T04:13:36;100232.28;;;13.18;100.00
75460;BME280;64039;53.060;9.342;2023-09-19T04:16:02;100249.75;;;13.30;100.00
75460;BME280;64039;53.060;9.342;2023-09-19T04:18:34;100243.63;;;13.37;100.00
75460;BME280;64039;53.060;9.342;2023-09-19T04:21:02;100247.97;;;13.19;100.00
75460;BME280;64039;53.060;9.342;2023-09-19T04:23:29;100246.22;;;13.25;100.00
75460;BME280;64039;53.060;9.342;2023-09-19T04:25:55;100244.50;;;13.33;100.00
75460;BME280;64039;53.060;9.342;2023-09-19T04:28:20;100243.63;;;13.34;100.00
75460;BME280;64039;53.060;9.342;2023-09-19T04:30:46;100245.38;;;13.29;100.00
75460;BME280;64039;53.060;9.342;2023-09-19T04:33:11;100253.19;;;13.32;100.00
75460;BME280;64039;53.060;9.342;2023-09-19T04:35:40;100244.50;;;13.30;100.00
75460;BME280;64039;53.060;9.342;2023-09-19T04:38:08;100252.31;;;13.24;100.00
75460;BME280;64039;53.060;9.342;2023-09-19T04:40:33;100247.97;;;13.26;100.00
75460;BME280;64039;53.060;9.342;2023-09-19T04:42:59;100252.34;;;13.25;100.00
75460;BME280;64039;53.060;9.342;2023-09-19T04:45:26;100241.00;;;13.23;100.00
75460;BME280;64039;53.060;9.342;2023-09-19T04:47:52;100252.34;;;13.20;100.00
75460;BME280;64039;53.060;9.342;2023-09-19T04:50:19;100247.09;;;13.27;100.00
75460;BME280;64039;53.060;9.342;2023-09-19T04:52:49;100257.56;;;13.28;100.00
75460;BME280;64039;53.060;9.342;2023-09-19T04:55:16;100255.81;;;13.24;100.00
75460;BME280;64039;53.060;9.342;2023-09-19T04:57:46;100254.97;;;13.25;100.00
75460;BME280;64039;53.060;9.342;2023-09-19T05:00:22;100261.06;;;13.29;100.00
75460;BME280;64039;53.060;9.342;2023-09-19T05:02:56;100251.47;;;13.23;100.00
75460;BME280;64039;53.060;9.342;2023-09-19T05:05:23;100265.41;;;13.27;100.00
75460;BME280;64039;53.060;9.342;2023-09-19T05:07:52;100261.06;;;13.29;100.00
75460;BME280;64039;53.060;9.342;2023-09-19T05:10:21;100268.91;;;13.33;100.00
75460;BME280;64039;53.060;9.342;2023-09-19T05:12:47;100268.00;;;13.28;100.00
75460;BME280;64039;53.060;9.342;2023-09-19T05:15:14;100281.09;;;13.25;100.00
75460;BME280;64039;53.060;9.342;2023-09-19T05:17:48;100281.09;;;13.36;100.00
75460;BME280;64039;53.060;9.342;2023-09-19T05:20:15;100290.66;;;13.23;100.00
75460;BME280;64039;53.060;9.342;2023-09-19T05:22:57;100295.91;;;13.23;100.00
75460;BME280;64039;53.060;9.342;2023-09-19T05:25:24;100290.69;;;13.28;100.00
75460;BME280;64039;53.060;9.342;2023-09-19T05:27:53;100299.38;;;13.28;100.00
75460;BME280;64039;53.060;9.342;2023-09-19T05:30:20;100303.75;;;13.32;100.00
75460;BME280;64039;53.060;9.342;2023-09-19T05:32:45;100304.56;;;13.19;100.00
75460;BME280;64039;53.060;9.342;2023-09-19T05:35:12;100299.34;;;13.17;100.00
75460;BME280;64039;53.060;9.342;2023-09-19T05:37:39;100310.69;;;13.27;100.00
75460;BME280;64039;53.060;9.342;2023-09-19T05:40:05;100306.34;;;13.29;100.00
75460;BME280;64039;53.060;9.342;2023-09-19T05:42:40;100308.09;;;13.36;100.00
75460;BME280;64039;53.060;9.342;2023-09-19T05:45:06;100305.53;;;13.47;100.00
75460;BME280;64039;53.060;9.342;2023-09-19T05:47:32;100298.56;;;13.52;100.00
75460;BME280;64039;53.060;9.342;2023-09-19T05:49:58;100303.78;;;13.54;100.00
75460;BME280;64039;53.060;9.342;2023-09-19T05:52:24;100311.66;;;13.63;100.00
75460;BME280;64039;53.060;9.342;2023-09-19T05:54:50;100317.75;;;13.58;100.00
75460;BME280;64039;53.060;9.342;2023-09-19T05:57:16;100322.13;;;13.57;100.00
75460;BME280;64039;53.060;9.342;2023-09-19T05:59:42;100319.47;;;13.49;100.00
75460;BME280;64039;53.060;9.342;2023-09-19T06:02:08;100317.75;;;13.61;100.00
75460;BME280;64039;53.060;9.342;2023-09-19T06:04:35;100317.75;;;13.67;100.00
75460;BME280;64039;53.060;9.342;2023-09-19T06:07:01;100310.78;;;13.78;100.00
75460;BME280;64039;53.060;9.342;2023-09-19T06:09:31;100311.66;;;13.87;100.00
75460;BME280;64039;53.060;9.342;2023-09-19T06:11:57;100328.22;;;13.90;100.00
75460;BME280;64039;53.060;9.342;2023-09-19T06:14:23;100325.59;;;13.90;100.00
75460;BME280;64039;53.060;9.342;2023-09-19T06:16:50;100328.22;;;13.96;100.00
75460;BME280;64039;53.060;9.342;2023-09-19T06:19:15;100329.09;;;14.00;100.00
75460;BME280;64039;53.060;9.342;2023-09-19T06:21:41;100318.63;;;14.08;100.00
75460;BME280;64039;53.060;9.342;2023-09-19T06:24:07;100319.47;;;14.13;100.00
75460;BME280;64039;53.060;9.342;2023-09-19T06:26:32;100336.03;;;14.17;100.00
75460;BME280;64039;53.060;9.342;2023-09-19T06:28:58;100330.81;;;14.23;100.00
75460;BME280;64039;53.060;9.342;2023-09-19T06:31:25;100337.75;;;14.28;100.00
75460;BME280;64039;53.060;9.342;2023-09-19T06:33:52;100343.03;;;14.18;100.00
75460;BME280;64039;53.060;9.342;2023-09-19T06:36:17;100336.91;;;14.19;100.00
75460;BME280;64039;53.060;9.342;2023-09-19T06:38:44;100334.28;;;14.25;100.00
75460;BME280;64039;53.060;9.342;2023-09-19T06:41:10;100334.28;;;14.25;100.00
75460;BME280;64039;53.060;9.342;2023-09-19T06:43:36;100338.66;;;14.24;100.00
75460;BME280;64039;53.060;9.342;2023-09-19T06:46:02;100333.44;;;14.24;100.00
75460;BME280;64039;53.060;9.342;2023-09-19T06:48:28;100348.25;;;14.19;100.00
75460;BME280;64039;53.060;9.342;2023-09-19T06:50:55;100334.31;;;14.22;100.00
75460;BME280;64039;53.060;9.342;2023-09-19T06:53:21;100331.66;;;14.25;100.00
75460;BME280;64039;53.060;9.342;2023-09-19T06:55:50;100339.50;;;14.29;100.00
75460;BME280;64039;53.060;9.342;2023-09-19T06:58:15;100339.53;;;14.23;100.00
75460;BME280;64039;53.060;9.342;2023-09-19T07:00:42;100350.00;;;14.28;100.00
75460;BME280;64039;53.060;9.342;2023-09-19T07:03:08;100345.63;;;14.22;100.00
75460;BME280;64039;53.060;9.342;2023-09-19T07:05:37;100346.50;;;14.29;100.00
75460;BME280;64039;53.060;9.342;2023-09-19T07:08:05;100361.28;;;14.44;100.00
75460;BME280;64039;53.060;9.342;2023-09-19T07:10:32;100351.72;;;14.43;100.00
75460;BME280;64039;53.060;9.342;2023-09-19T07:15:29;100376.16;;;14.43;100.00
75460;BME280;64039;53.060;9.342;2023-09-19T07:17:56;100380.47;;;14.52;100.00
75460;BME280;64039;53.060;9.342;2023-09-19T07:20:23;100390.09;;;14.64;100.00
75460;BME280;64039;53.060;9.342;2023-09-19T07:22:52;100385.69;;;14.61;100.00
75460;BME280;64039;53.060;9.342;2023-09-19T07:25:17;100386.59;;;14.68;100.00
75460;BME280;64039;53.060;9.342;2023-09-19T07:27:43;100392.69;;;14.75;100.00
75460;BME280;64039;53.060;9.342;2023-09-19T07:30:09;100390.94;;;14.83;100.00
75460;BME280;64039;53.060;9.342;2023-09-19T07:32:35;100389.16;;;14.91;100.00
75460;BME280;64039;53.060;9.342;2023-09-19T07:35:06;100392.69;;;14.72;100.00
75460;BME280;64039;53.060;9.342;2023-09-19T07:37:32;100399.63;;;14.88;100.00
75460;BME280;64039;53.060;9.342;2023-09-19T07:40:05;100390.81;;;15.11;100.00
75460;BME280;64039;53.060;9.342;2023-09-19T07:42:33;100392.50;;;15.29;100.00
75460;BME280;64039;53.060;9.342;2023-09-19T07:45:01;100387.25;;;15.24;100.00
75460;BME280;64039;53.060;9.342;2023-09-19T07:47:26;100387.31;;;15.12;100.00
75460;BME280;64039;53.060;9.342;2023-09-19T07:49:53;100387.31;;;15.07;100.00
75460;BME280;64039;53.060;9.342;2023-09-19T07:52:18;100394.38;;;15.01;100.00
75460;BME280;64039;53.060;9.342;2023-09-19T07:54:44;100398.72;;;15.02;100.00
75460;BME280;64039;53.060;9.342;2023-09-19T07:57:10;100387.34;;;15.09;100.00
75460;BME280;64039;53.060;9.342;2023-09-19T07:59:37;100384.69;;;15.12;100.00
75460;BME280;64039;53.060;9.342;2023-09-19T08:02:04;100395.16;;;15.18;100.00
75460;BME280;64039;53.060;9.342;2023-09-19T08:04:30;100389.88;;;15.28;100.00
75460;BME280;64039;53.060;9.342;2023-09-19T08:06:57;100394.19;;;15.36;100.00
75460;BME280;64039;53.060;9.342;2023-09-19T08:09:26;100397.69;;;15.35;100.00
75460;BME280;64039;53.060;9.342;2023-09-19T08:11:52;100403.69;;;15.61;100.00
75460;BME280;64039;53.060;9.342;2023-09-19T08:14:18;100398.41;;;15.62;100.00
75460;BME280;64039;53.060;9.342;2023-09-19T08:16:44;100398.31;;;15.81;100.00
75460;BME280;64039;53.060;9.342;2023-09-19T08:19:10;100396.59;;;15.75;100.00
75460;BME280;64039;53.060;9.342;2023-09-19T08:21:36;100407.03;;;15.78;100.00
75460;BME280;64039;53.060;9.342;2023-09-19T08:24:02;100411.34;;;15.96;100.00
75460;BME280;64039;53.060;9.342;2023-09-19T08:26:30;100399.09;;;15.92;100.00
75460;BME280;64039;53.060;9.342;2023-09-19T08:28:56;100399.09;;;15.98;100.00
75460;BME280;64039;53.060;9.342;2023-09-19T08:31:22;100406.81;;;16.12;99.42
75460;BME280;64039;53.060;9.342;2023-09-19T08:33:49;100398.88;;;16.22;100.00
75460;BME280;64039;53.060;9.342;2023-09-19T08:36:16;100403.97;;;16.40;98.68
75460;BME280;64039;53.060;9.342;2023-09-19T08:38:42;100396.72;;;16.64;97.04
75460;BME280;64039;53.060;9.342;2023-09-19T08:41:08;100396.72;;;16.62;97.44
75460;BME280;64039;53.060;9.342;2023-09-19T08:43:34;100411.84;;;16.40;94.65
75460;BME280;64039;53.060;9.342;2023-09-19T08:46:20;100400.25;;;16.58;93.72
75460;BME280;64039;53.060;9.342;2023-09-19T08:49:04;100413.34;;;16.63;97.23
75460;BME280;64039;53.060;9.342;2023-09-19T08:51:41;100402.84;;;16.64;97.13
75460;BME280;64039;53.060;9.342;2023-09-19T08:54:21;100407.28;;;16.61;96.40
75460;BME280;64039;53.060;9.342;2023-09-19T08:56:48;100407.13;;;16.73;95.69
75460;BME280;64039;53.060;9.342;2023-09-19T08:59:15;100429.19;;;16.57;94.92
75460;BME280;64039;53.060;9.342;2023-09-19T09:01:41;100425.69;;;16.55;93.93
75460;BME280;64039;53.060;9.342;2023-09-19T09:04:12;100426.50;;;16.63;95.94
75460;BME280;64039;53.060;9.342;2023-09-19T09:06:38;100435.47;;;16.43;94.88
75460;BME280;64039;53.060;9.342;2023-09-19T09:09:05;100410.16;;;16.30;94.87
75460;BME280;64039;53.060;9.342;2023-09-19T09:11:34;100412.75;;;16.38;95.98
75460;BME280;64039;53.060;9.342;2023-09-19T09:13:59;100407.22;;;16.64;95.38
75460;BME280;64039;53.060;9.342;2023-09-19T09:16:25;100416.81;;;16.70;94.23
75460;BME280;64039;53.060;9.342;2023-09-19T09:18:51;100407.44;;;16.42;93.46
75460;BME280;64039;53.060;9.342;2023-09-19T09:21:18;100404.78;;;16.47;93.93
75460;BME280;64039;53.060;9.342;2023-09-19T09:23:44;100401.09;;;16.65;93.73
75460;BME280;64039;53.060;9.342;2023-09-19T09:26:09;100422.72;;;16.95;94.18
75460;BME280;64039;53.060;9.342;2023-09-19T09:28:35;100420.88;;;17.00;93.79
75460;BME280;64039;53.060;9.342;2023-09-19T09:31:02;100427.06;;;16.96;90.63
75460;BME280;64039;53.060;9.342;2023-09-19T09:33:33;100423.59;;;16.89;90.87
75460;BME280;64039;53.060;9.342;2023-09-19T09:36:00;100413.22;;;16.78;91.77
75460;BME280;64039;53.060;9.342;2023-09-19T09:38:29;100412.25;;;16.84;93.23
75460;BME280;64039;53.060;9.342;2023-09-19T09:40:59;100426.44;;;16.71;91.57
75460;BME280;64039;53.060;9.342;2023-09-19T09:43:33;100436.03;;;16.73;91.23
75460;BME280;64039;53.060;9.342;2023-09-19T09:46:10;100431.53;;;16.83;91.84
75460;BME280;64039;53.060;9.342;2023-09-19T09:48:58;100440.28;;;16.87;89.53
75460;BME280;64039;53.060;9.342;2023-09-19T09:54:23;100428.53;;;17.20;90.91
75460;BME280;64039;53.060;9.342;2023-09-19T09:56:59;100423.44;;;17.08;88.54
75460;BME280;64039;53.060;9.342;2023-09-19T10:02:17;100435.50;;;17.23;85.37
75460;BME280;64039;53.060;9.342;2023-09-19T10:04:50;100433.63;;;17.34;86.75
75460;BME280;64039;53.060;9.342;2023-09-19T10:07:32;100442.63;;;17.15;85.46
75460;BME280;64039;53.060;9.342;2023-09-19T10:10:02;100444.50;;;17.05;84.10
75460;BME280;64039;53.060;9.342;2023-09-19T10:12:58;100440.38;;;17.54;86.43
75460;BME280;64039;53.060;9.342;2023-09-19T10:15:31;100447.59;;;17.38;83.85
75460;BME280;64039;53.060;9.342;2023-09-19T10:18:00;100441.94;;;16.97;85.07
75460;BME280;64039;53.060;9.342;2023-09-19T10:20:28;100439.25;;;17.03;85.18
75460;BME280;64039;53.060;9.342;2023-09-19T10:23:10;100440.09;;;17.07;84.91
75460;BME280;64039;53.060;9.342;2023-09-19T10:25:38;100449.56;;;17.20;85.86
75460;BME280;64039;53.060;9.342;2023-09-19T10:28:10;100450.41;;;17.24;86.99
75460;BME280;64039;53.060;9.342;2023-09-19T10:30:37;100431.41;;;17.00;86.94
75460;BME280;64039;53.060;9.342;2023-09-19T10:33:08;100432.53;;;16.71;87.06
75460;BME280;64039;53.060;9.342;2023-09-19T10:35:39;100438.47;;;16.95;88.56
75460;BME280;64039;53.060;9.342;2023-09-19T10:38:09;100440.19;;;16.96;87.00
75460;BME280;64039;53.060;9.342;2023-09-19T10:40:36;100431.25;;;17.11;86.53
75460;BME280;64039;53.060;9.342;2023-09-19T10:43:06;100442.75;;;17.04;87.30
75460;BME280;64039;53.060;9.342;2023-09-19T10:45:34;100447.97;;;17.07;85.65
75460;BME280;64039;53.060;9.342;2023-09-19T10:48:01;100452.34;;;17.06;86.99
75460;BME280;64039;53.060;9.342;2023-09-19T10:50:31;100448.09;;;16.94;85.59
75460;BME280;64039;53.060;9.342;2023-09-19T10:53:00;100438.28;;;17.09;85.46
75460;BME280;64039;53.060;9.342;2023-09-19T10:55:30;100457.72;;;16.92;86.87
75460;BME280;64039;53.060;9.342;2023-09-19T10:57:56;100448.91;;;17.01;87.73
75460;BME280;64039;53.060;9.342;2023-09-19T11:00:58;100455.00;;;17.08;86.57
75460;BME280;64039;53.060;9.342;2023-09-19T11:03:28;100444.38;;;17.14;85.92
75460;BME280;64039;53.060;9.342;2023-09-19T11:14:40;100442.03;;;17.61;84.75
75460;BME280;64039;53.060;9.342;2023-09-19T11:30:31;100443.38;;;17.88;83.05
75460;BME280;64039;53.060;9.342;2023-09-19T11:33:20;100425.41;;;17.57;79.72
75460;BME280;64039;53.060;9.342;2023-09-19T11:46:53;100403.59;;;18.09;79.01
75460;BME280;64039;53.060;9.342;2023-09-19T11:49:19;100424.69;;;18.09;77.66
75460;BME280;64039;53.060;9.342;2023-09-19T11:51:51;100409.63;;;18.17;76.61
75460;BME280;64039;53.060;9.342;2023-09-19T11:54:17;100412.13;;;18.23;74.84
75460;BME280;64039;53.060;9.342;2023-09-19T11:56:44;100407.00;;;18.15;75.89
75460;BME280;64039;53.060;9.342;2023-09-19T11:59:11;100412.22;;;18.18;72.59
75460;BME280;64039;53.060;9.342;2023-09-19T12:01:38;100406.63;;;18.37;74.83
75460;BME280;64039;53.060;9.342;2023-09-19T12:04:11;100412.13;;;18.25;72.18
75460;BME280;64039;53.060;9.342;2023-09-19T12:06:37;100411.13;;;18.30;70.96
75460;BME280;64039;53.060;9.342;2023-09-19T12:09:13;100416.19;;;18.43;70.42
75460;BME280;64039;53.060;9.342;2023-09-19T12:11:42;100411.41;;;18.15;70.24
75460;BME280;64039;53.060;9.342;2023-09-19T12:14:11;100422.78;;;18.17;74.17
75460;BME280;64039;53.060;9.342;2023-09-19T12:16:56;100436.72;;;18.22;76.71
75460;BME280;64039;53.060;9.342;2023-09-19T12:19:25;100406.94;;;18.20;76.65
75460;BME280;64039;53.060;9.342;2023-09-19T12:22:00;100422.59;;;18.29;76.08
75460;BME280;64039;53.060;9.342;2023-09-19T12:24:34;100423.69;;;18.16;74.34
75460;BME280;64039;53.060;9.342;2023-09-19T12:27:05;100427.22;;;18.13;76.84
75460;BME280;64039;53.060;9.342;2023-09-19T12:29:32;100424.22;;;18.35;74.05
75460;BME280;64039;53.060;9.342;2023-09-19T12:31:59;100424.31;;;18.30;73.28
75460;BME280;64039;53.060;9.342;2023-09-19T12:34:32;100421.75;;;18.27;73.57
75460;BME280;64039;53.060;9.342;2023-09-19T12:37:08;100417.56;;;18.14;70.90
75460;BME280;64039;53.060;9.342;2023-09-19T12:39:44;100426.03;;;18.31;73.29
75460;BME280;64039;53.060;9.342;2023-09-19T12:42:20;100395.16;;;18.41;71.47
75460;BME280;64039;53.060;9.342;2023-09-19T12:44:48;100409.16;;;18.43;71.15
75460;BME280;64039;53.060;9.342;2023-09-19T12:47:16;100389.00;;;18.42;67.68
75460;BME280;64039;53.060;9.342;2023-09-19T12:52:37;100399.16;;;18.62;69.16
75460;BME280;64039;53.060;9.342;2023-09-19T12:55:03;100394.03;;;18.54;69.38
75460;BME280;64039;53.060;9.342;2023-09-19T12:57:31;100385.91;;;18.65;70.98
75460;BME280;64039;53.060;9.342;2023-09-19T13:00:01;100387.97;;;18.49;69.82
75460;BME280;64039;53.060;9.342;2023-09-19T13:02:26;100405.44;;;18.55;70.04
75460;BME280;64039;53.060;9.342;2023-09-19T13:04:54;100391.25;;;18.62;68.24
75460;BME280;64039;53.060;9.342;2023-09-19T13:07:45;100384.16;;;18.66;70.46
75460;BME280;64039;53.060;9.342;2023-09-19T13:10:13;100374.94;;;18.87;71.69
75460;BME280;64039;53.060;9.342;2023-09-19T13:12:43;100382.44;;;19.09;69.49
75460;BME280;64039;53.060;9.342;2023-09-19T13:15:14;100371.47;;;18.85;68.83
75460;BME280;64039;53.060;9.342;2023-09-19T13:17:47;100368.75;;;18.90;70.80
75460;BME280;64039;53.060;9.342;2023-09-19T13:20:23;100354.56;;;18.97;68.85
75460;BME280;64039;53.060;9.342;2023-09-19T13:22:57;100370.66;;;18.81;69.69
75460;BME280;64039;53.060;9.342;2023-09-19T13:25:34;100356.53;;;18.84;70.41
75460;BME280;64039;53.060;9.342;2023-09-19T13:28:00;100356.63;;;19.23;69.48
75460;BME280;64039;53.060;9.342;2023-09-19T13:30:30;100347.75;;;19.27;67.76
75460;BME280;64039;53.060;9.342;2023-09-19T13:33:08;100347.50;;;19.38;68.92
75460;BME280;64039;53.060;9.342;2023-09-19T13:35:36;100337.16;;;19.29;68.61
75460;BME280;64039;53.060;9.342;2023-09-19T13:38:04;100354.53;;;19.39;69.42
75460;BME280;64039;53.060;9.342;2023-09-19T13:40:29;100354.69;;;19.31;70.29
75460;BME280;64039;53.060;9.342;2023-09-19T13:43:00;100363.63;;;19.26;69.38
75460;BME280;64039;53.060;9.342;2023-09-19T13:45:26;100362.88;;;19.19;71.78
75460;BME280;64039;53.060;9.342;2023-09-19T13:47:56;100359.44;;;19.15;71.92
75460;BME280;64039;53.060;9.342;2023-09-19T13:50:21;100349.94;;;19.08;71.45